createdAt,value
2022-12-15T00:00:05.316Z,99191.66
2022-12-15T00:05:34.506Z,99208.84
2022-12-15T00:11:02.756Z,99193.81
2022-12-15T00:16:26.395Z,99209.31
2022-12-15T00:27:45.584Z,99196.06
2022-12-15T00:33:09.685Z,99197.13
2022-12-15T00:38:38.134Z,99204.91
2022-12-15T00:44:00.140Z,99206.81
2022-12-15T00:49:32.978Z,99223.03
2022-12-15T00:54:58.467Z,99227.38
2022-12-15T01:00:28.460Z,99224.94
2022-12-15T01:05:50.220Z,99231.84
2022-12-15T01:11:11.800Z,99233.66
2022-12-15T01:16:41.395Z,99239.78
2022-12-15T01:21:52.107Z,99248.47
2022-12-15T01:26:58.671Z,99256.25
2022-12-15T01:32:21.137Z,99266.59
2022-12-15T01:37:30.480Z,99267.69
2022-12-15T01:42:36.994Z,99276.31
2022-12-15T01:47:45.736Z,99289.09
2022-12-15T01:52:52.319Z,99283.22
2022-12-15T01:58:04.912Z,99273.81
2022-12-15T02:03:17.073Z,99280.56
2022-12-15T02:08:22.868Z,99288.19
2022-12-15T02:13:39.232Z,99294.13
2022-12-15T02:19:05.131Z,99297.50
2022-12-15T02:24:34.090Z,99307.75
2022-12-15T02:30:09.054Z,99305.25
2022-12-15T02:35:27.825Z,99312.13
2022-12-15T02:40:38.154Z,99310.50
2022-12-15T02:45:57.431Z,99322.47
2022-12-15T02:51:25.651Z,99315.84
2022-12-15T02:56:40.713Z,99330.28
2022-12-15T03:01:57.286Z,99339.75
2022-12-15T03:07:07.691Z,99359.28
2022-12-15T03:12:14.676Z,99361.00
2022-12-15T03:17:41.498Z,99372.88
2022-12-15T03:22:50.190Z,99370.50
2022-12-15T03:27:59.183Z,99373.94
2022-12-15T03:33:14.572Z,99373.03
2022-12-15T03:38:22.892Z,99373.88
2022-12-15T03:43:31.890Z,99367.94
2022-12-15T03:48:55.331Z,99372.97
2022-12-15T03:54:18.259Z,99382.25
2022-12-15T03:59:31.602Z,99394.03
2022-12-15T04:04:45.039Z,99403.28
2022-12-15T04:09:59.813Z,99405.84
2022-12-15T04:15:09.641Z,99406.72
2022-12-15T04:20:19.858Z,99414.31
2022-12-15T04:25:45.334Z,99421.13
2022-12-15T04:31:15.860Z,99433.81
2022-12-15T04:37:04.977Z,99421.88
2022-12-15T04:42:28.877Z,99433.84
2022-12-15T04:47:54.558Z,99424.41
2022-12-15T04:53:35.127Z,99438.00
2022-12-15T04:59:06.050Z,99453.19
2022-12-15T05:04:37.945Z,99458.28
2022-12-15T05:10:14.920Z,99477.75
2022-12-15T05:15:40.175Z,99473.47
2022-12-15T05:21:03.514Z,99469.25
2022-12-15T05:26:29.094Z,99468.41
2022-12-15T05:31:53.175Z,99477.69
2022-12-15T05:37:00.733Z,99481.19
2022-12-15T05:42:09.460Z,99481.19
2022-12-15T05:47:22.695Z,99493.09
2022-12-15T05:52:49.479Z,99496.47
2022-12-15T05:58:23.241Z,99514.97
2022-12-15T06:03:39.538Z,99510.00
2022-12-15T06:09:02.751Z,99521.78
2022-12-15T06:14:31.155Z,99519.19
2022-12-15T06:19:43.680Z,99536.19
2022-12-15T06:24:53.813Z,99554.84
2022-12-15T06:30:04.083Z,99562.59
2022-12-15T06:35:35.289Z,99567.69
2022-12-15T06:40:50.131Z,99588.88
2022-12-15T06:46:28.936Z,99587.28
2022-12-15T06:52:13.300Z,99580.50
2022-12-15T06:57:37.061Z,99590.69
2022-12-15T07:03:00.268Z,99594.06
2022-12-15T07:08:10.992Z,99593.19
2022-12-15T07:13:19.241Z,99595.66
2022-12-15T07:18:29.757Z,99590.47
2022-12-15T07:23:55.780Z,99600.53
2022-12-15T07:29:23.261Z,99608.97
2022-12-15T07:34:44.683Z,99621.59
2022-12-15T07:39:52.485Z,99616.34
2022-12-15T07:45:15.151Z,99629.84
2022-12-15T07:50:28.854Z,99647.47
2022-12-15T07:55:57.561Z,99638.72
2022-12-15T08:01:08.003Z,99643.66
2022-12-15T08:06:41.681Z,99642.69
2022-12-15T08:11:47.154Z,99649.31
2022-12-15T08:16:57.074Z,99654.22
2022-12-15T08:22:08.272Z,99658.19
2022-12-15T08:27:17.107Z,99672.16
2022-12-15T08:32:32.191Z,99665.84
2022-12-15T08:37:47.392Z,99675.50
2022-12-15T08:43:14.054Z,99669.94
2022-12-15T08:48:40.094Z,99663.31
2022-12-15T08:53:57.393Z,99674.47
2022-12-15T08:59:07.349Z,99668.81
2022-12-15T09:04:25.957Z,99680.16
2022-12-15T09:09:44.200Z,99685.47
2022-12-15T09:14:57.101Z,99680.63
2022-12-15T09:20:17.932Z,99681.56
2022-12-15T09:25:24.254Z,99673.97
2022-12-15T09:30:37.065Z,99672.25
2022-12-15T09:35:46.544Z,99672.38
2022-12-15T09:40:59.562Z,99682.00
2022-12-15T09:46:20.900Z,99687.31
2022-12-15T09:51:49.719Z,99685.47
2022-12-15T09:57:14.846Z,99694.19
2022-12-15T10:02:47.475Z,99700.97
2022-12-15T10:08:13.546Z,99706.81
2022-12-15T10:13:25.664Z,99702.78
2022-12-15T10:18:44.619Z,99701.44
2022-12-15T10:24:00.974Z,99705.78
2022-12-15T10:29:26.237Z,99715.47
2022-12-15T10:34:44.084Z,99716.38
2022-12-15T10:39:51.353Z,99712.00
2022-12-15T10:45:02.503Z,99713.81
2022-12-15T10:50:28.188Z,99714.03
2022-12-15T10:55:42.433Z,99723.53
2022-12-15T11:00:50.967Z,99718.94
2022-12-15T11:05:58.173Z,99718.78
2022-12-15T11:11:19.377Z,99711.63
2022-12-15T11:16:28.803Z,99709.53
2022-12-15T11:21:52.386Z,99708.03
2022-12-15T11:27:27.788Z,99719.78
2022-12-15T11:32:44.881Z,99720.72
2022-12-15T11:38:05.093Z,99719.09
2022-12-15T11:44:04.269Z,99726.00
2022-12-15T11:49:41.541Z,99720.94
2022-12-15T11:55:05.042Z,99714.19
2022-12-15T12:00:16.010Z,99706.31
2022-12-15T12:05:38.826Z,99712.69
2022-12-15T12:10:56.316Z,99711.53
2022-12-15T12:16:19.572Z,99703.84
2022-12-15T12:21:38.339Z,99702.75
2022-12-15T12:26:50.387Z,99702.88
2022-12-15T12:32:05.911Z,99696.66
2022-12-15T12:37:25.242Z,99693.22
2022-12-15T12:42:48.039Z,99704.53
2022-12-15T12:48:00.747Z,99696.34
2022-12-15T12:53:32.270Z,99690.53
2022-12-15T12:58:42.196Z,99696.84
2022-12-15T13:04:11.054Z,99695.19
2022-12-15T13:09:47.757Z,99688.44
2022-12-15T13:15:25.749Z,99684.38
2022-12-15T13:20:37.696Z,99685.50
2022-12-15T13:25:55.483Z,99685.72
2022-12-15T13:31:37.780Z,99697.81
2022-12-15T13:37:06.317Z,99677.50
2022-12-15T13:42:52.884Z,99681.81
2022-12-15T13:48:03.121Z,99681.81
2022-12-15T13:53:21.759Z,99680.97
2022-12-15T13:58:38.832Z,99686.28
2022-12-15T14:04:00.947Z,99680.38
2022-12-15T14:09:10.428Z,99667.88
2022-12-15T14:14:25.103Z,99687.56
2022-12-15T14:19:42.148Z,99684.41
2022-12-15T14:30:28.215Z,99696.16
2022-12-15T14:35:38.841Z,99704.81
2022-12-15T14:40:47.163Z,99702.56
2022-12-15T14:46:11.669Z,99692.59
2022-12-15T14:51:22.916Z,99698.75
2022-12-15T14:56:34.377Z,99702.38
2022-12-15T15:01:58.957Z,99697.53
2022-12-15T15:07:50.639Z,99702.81
2022-12-15T15:12:54.435Z,99684.38
2022-12-15T15:18:01.636Z,99685.34
2022-12-15T15:23:17.762Z,99682.94
2022-12-15T15:28:26.868Z,99673.72
2022-12-15T15:33:31.408Z,99682.63
2022-12-15T15:38:36.988Z,99676.78
2022-12-15T15:43:40.343Z,99685.53
2022-12-15T15:48:48.787Z,99702.84
2022-12-15T15:53:52.235Z,99710.69
2022-12-15T15:58:55.609Z,99706.59
2022-12-15T16:04:00.935Z,99706.72
2022-12-15T16:09:07.062Z,99703.41
2022-12-15T16:14:13.236Z,99714.69
2022-12-15T16:19:18.005Z,99714.75
2022-12-15T16:24:21.623Z,99725.97
2022-12-15T16:29:24.873Z,99730.44
2022-12-15T16:34:30.313Z,99730.53
2022-12-15T16:39:36.523Z,99752.06
2022-12-15T16:44:39.675Z,99748.75
2022-12-15T16:49:44.165Z,99758.16
2022-12-15T16:54:49.133Z,99753.88
2022-12-15T16:59:52.260Z,99759.91
2022-12-15T17:04:58.097Z,99766.81
2022-12-15T17:10:02.239Z,99756.75
2022-12-15T17:15:16.950Z,99749.13
2022-12-15T17:20:31.453Z,99749.34
2022-12-15T17:26:18.044Z,99746.13
2022-12-15T17:31:01.586Z,99755.00
2022-12-15T17:36:16.361Z,99741.56
2022-12-15T17:41:42.783Z,99732.53
2022-12-15T17:46:45.552Z,99733.53
2022-12-15T17:51:51.159Z,99732.09
2022-12-15T17:56:54.389Z,99727.22
2022-12-15T18:01:57.971Z,99737.59
2022-12-15T18:07:02.866Z,99744.53
2022-12-15T18:12:12.161Z,99751.41
2022-12-15T18:17:15.477Z,99742.97
2022-12-15T18:22:22.660Z,99756.66
2022-12-15T18:27:27.996Z,99757.56
2022-12-15T18:32:31.337Z,99745.69
2022-12-15T18:37:36.034Z,99749.22
2022-12-15T18:42:40.456Z,99763.94
2022-12-15T18:47:43.673Z,99783.59
2022-12-15T18:52:49.795Z,99762.22
2022-12-15T18:57:53.581Z,99764.06
2022-12-15T19:03:00.847Z,99757.44
2022-12-15T19:08:11.977Z,99762.69
2022-12-15T19:13:15.965Z,99766.19
2022-12-15T19:18:38.165Z,99763.91
2022-12-15T19:23:42.801Z,99764.06
2022-12-15T19:28:45.959Z,99765.84
2022-12-15T19:33:49.389Z,99752.44
2022-12-15T19:38:56.385Z,99764.53
2022-12-15T19:43:59.612Z,99759.63
2022-12-15T19:49:02.834Z,99762.34
2022-12-15T19:54:07.961Z,99755.69
2022-12-15T19:59:19.902Z,99758.31
2022-12-15T20:04:24.545Z,99748.19
2022-12-15T20:09:29.394Z,99731.25
2022-12-15T20:14:32.498Z,99730.56
2022-12-15T20:19:35.578Z,99728.03
2022-12-15T20:24:40.179Z,99717.97
2022-12-15T20:29:43.759Z,99724.13
2022-12-15T20:34:47.651Z,99713.25
2022-12-15T20:39:57.233Z,99717.66
2022-12-15T20:45:01.028Z,99711.03
2022-12-15T20:50:05.067Z,99706.91
2022-12-15T20:55:15.211Z,99698.50
2022-12-15T21:00:19.204Z,99698.69
2022-12-15T21:05:25.619Z,99701.50
2022-12-15T21:10:30.164Z,99685.63
2022-12-15T21:15:34.515Z,99699.38
2022-12-15T21:20:39.741Z,99704.59
2022-12-15T21:25:44.367Z,99701.34
2022-12-15T21:30:48.182Z,99688.50
2022-12-15T21:35:51.356Z,99680.97
2022-12-15T21:40:59.565Z,99685.06
2022-12-15T21:46:05.582Z,99683.41
2022-12-15T21:51:13.446Z,99690.13
2022-12-15T21:56:19.914Z,99686.56
2022-12-15T22:01:25.176Z,99689.09
2022-12-15T22:06:31.158Z,99692.53
2022-12-15T22:11:35.585Z,99702.91
2022-12-15T22:16:38.690Z,99708.06
2022-12-15T22:21:42.732Z,99705.50
2022-12-15T22:26:48.637Z,99705.63
2022-12-15T22:31:52.127Z,99712.38
2022-12-15T22:36:55.429Z,99715.19
2022-12-15T22:42:00.278Z,99719.41
2022-12-15T22:47:05.216Z,99729.66
2022-12-15T22:52:16.466Z,99740.75
2022-12-15T22:57:24.654Z,99741.59
2022-12-15T23:02:28.879Z,99736.56
2022-12-15T23:07:32.795Z,99740.88
2022-12-15T23:12:37.334Z,99741.91
2022-12-15T23:17:40.454Z,99730.03
2022-12-15T23:22:43.859Z,99735.13
2022-12-15T23:27:48.398Z,99729.16
2022-12-15T23:32:52.053Z,99730.16
2022-12-15T23:37:59.081Z,99730.06
2022-12-15T23:43:04.240Z,99725.78
2022-12-15T23:48:07.908Z,99719.00
2022-12-15T23:53:11.034Z,99721.44
2022-12-15T23:58:15.744Z,99710.38
